createdAt,value
2018-10-01T00:00:45.512Z,3.17
2018-10-01T00:03:14.687Z,2.90
2018-10-01T00:05:43.991Z,4.93
2018-10-01T00:08:12.551Z,3.03
2018-10-01T00:10:41.279Z,2.50
2018-10-01T00:13:10.222Z,3.00
2018-10-01T00:15:38.867Z,2.30
2018-10-01T00:18:07.663Z,2.00
2018-10-01T00:20:42.078Z,2.17
2018-10-01T00:23:10.918Z,2.43
2018-10-01T00:25:39.950Z,2.23
2018-10-01T00:28:08.937Z,2.87
2018-10-01T00:30:37.700Z,3.30
2018-10-01T00:33:06.478Z,1.90
2018-10-01T00:35:35.247Z,3.43
2018-10-01T00:38:03.906Z,2.30
2018-10-01T00:40:32.539Z,2.13
2018-10-01T00:43:01.266Z,3.50
2018-10-01T00:45:30.115Z,1.63
2018-10-01T00:47:58.855Z,1.93
2018-10-01T00:50:27.666Z,1.73
2018-10-01T00:52:56.581Z,2.07
2018-10-01T00:55:25.514Z,2.10
2018-10-01T00:57:54.972Z,5.73
2018-10-01T01:00:23.661Z,2.03
2018-10-01T01:02:52.739Z,1.70
2018-10-01T01:05:22.030Z,2.70
2018-10-01T01:07:50.730Z,1.60
2018-10-01T01:10:19.506Z,1.93
2018-10-01T01:12:48.447Z,1.73
2018-10-01T01:15:17.538Z,1.73
2018-10-01T01:17:46.429Z,2.07
2018-10-01T01:20:15.508Z,3.90
2018-10-01T01:22:44.299Z,2.03
2018-10-01T01:25:13.319Z,4.10
2018-10-01T01:27:42.304Z,1.57
2018-10-01T01:30:11.186Z,2.00
2018-10-01T01:32:40.182Z,1.40
2018-10-01T01:35:09.094Z,1.90
2018-10-01T01:37:37.838Z,4.63
2018-10-01T01:40:06.549Z,1.43
2018-10-01T01:42:35.574Z,1.80
2018-10-01T01:45:04.511Z,1.60
2018-10-01T01:47:33.606Z,2.23
2018-10-01T01:50:02.923Z,3.83
2018-10-01T01:52:31.980Z,1.93
2018-10-01T01:55:00.935Z,1.43
2018-10-01T01:57:29.943Z,2.43
2018-10-01T01:59:58.757Z,3.03
2018-10-01T02:02:27.581Z,2.77
2018-10-01T02:04:56.819Z,2.60
2018-10-01T02:07:25.434Z,2.70
2018-10-01T02:09:54.051Z,3.30
2018-10-01T02:12:22.710Z,2.10
2018-10-01T02:14:51.791Z,1.40
2018-10-01T02:17:20.857Z,4.80
2018-10-01T02:19:49.756Z,2.90
2018-10-01T02:22:18.445Z,2.50
2018-10-01T02:24:47.236Z,1.33
2018-10-01T02:27:16.153Z,1.40
2018-10-01T02:29:45.207Z,1.47
2018-10-01T02:32:14.030Z,1.50
2018-10-01T02:34:43.128Z,1.30
2018-10-01T02:37:11.951Z,1.67
2018-10-01T02:39:40.687Z,3.27
2018-10-01T02:42:09.638Z,9.07
2018-10-01T02:44:38.355Z,8.37
2018-10-01T02:47:07.276Z,3.90
2018-10-01T02:49:36.366Z,2.23
2018-10-01T02:52:10.307Z,3.10
2018-10-01T02:54:39.974Z,3.53
2018-10-01T02:57:08.927Z,6.93
2018-10-01T02:59:38.096Z,4.07
2018-10-01T03:02:07.157Z,3.97
2018-10-01T03:04:36.145Z,1.97
2018-10-01T03:07:04.864Z,3.60
2018-10-01T03:09:33.799Z,1.90
2018-10-01T03:12:02.562Z,4.90
2018-10-01T03:14:31.237Z,3.43
2018-10-01T03:17:00.222Z,5.03
2018-10-01T03:19:29.073Z,2.67
2018-10-01T03:21:57.978Z,2.30
2018-10-01T03:24:27.016Z,3.70
2018-10-01T03:26:55.840Z,4.57
2018-10-01T03:29:24.670Z,2.30
2018-10-01T03:31:54.007Z,2.90
2018-10-01T03:34:23.027Z,5.40
2018-10-01T03:36:51.671Z,3.40
2018-10-01T03:39:21.052Z,2.20
2018-10-01T03:41:49.771Z,6.80
2018-10-01T03:44:18.808Z,3.07
2018-10-01T03:46:47.948Z,4.47
2018-10-01T03:49:16.600Z,4.30
2018-10-01T03:51:45.444Z,4.10
2018-10-01T03:54:14.507Z,6.70
2018-10-01T03:56:43.347Z,12.13
2018-10-01T03:59:12.198Z,4.20
2018-10-01T04:01:41.447Z,3.23
2018-10-01T04:04:10.198Z,3.60
2018-10-01T04:06:38.942Z,3.83
2018-10-01T04:09:08.787Z,4.17
2018-10-01T04:11:37.522Z,3.50
2018-10-01T04:14:06.442Z,3.27
2018-10-01T04:16:36.017Z,11.93
2018-10-01T04:19:04.834Z,7.97
2018-10-01T04:21:33.555Z,4.30
2018-10-01T04:24:02.938Z,4.50
2018-10-01T04:26:31.646Z,4.47
2018-10-01T04:29:00.911Z,8.10
2018-10-01T04:31:30.018Z,8.33
2018-10-01T04:33:59.066Z,5.00
2018-10-01T04:36:28.077Z,7.57
2018-10-01T04:38:57.005Z,14.43
2018-10-01T04:41:25.944Z,7.27
2018-10-01T04:43:54.670Z,3.47
2018-10-01T04:46:23.741Z,7.40
2018-10-01T04:48:52.549Z,6.20
2018-10-01T04:51:21.248Z,10.67
2018-10-01T04:53:50.359Z,8.83
2018-10-01T04:56:19.427Z,3.20
2018-10-01T04:58:48.598Z,5.07
2018-10-01T05:01:17.745Z,4.27
2018-10-01T05:03:46.698Z,4.13
2018-10-01T05:06:16.102Z,5.23
2018-10-01T05:08:45.033Z,11.40
2018-10-01T05:11:13.763Z,3.97
2018-10-01T05:13:42.873Z,3.83
2018-10-01T05:16:12.011Z,5.20
2018-10-01T05:18:40.918Z,4.50
2018-10-01T05:21:09.582Z,10.17
2018-10-01T05:23:38.624Z,5.17
2018-10-01T05:26:07.451Z,4.03
2018-10-01T05:28:36.357Z,3.03
2018-10-01T05:31:05.367Z,5.40
2018-10-01T05:33:34.386Z,5.00
2018-10-01T05:36:03.451Z,7.53
2018-10-01T05:38:32.531Z,8.80
2018-10-01T05:41:01.172Z,4.97
2018-10-01T05:43:29.858Z,6.03
2018-10-01T05:45:58.820Z,5.07
2018-10-01T05:48:27.685Z,3.80
2018-10-01T05:50:56.578Z,7.83
2018-10-01T05:53:25.764Z,6.00
2018-10-01T05:55:54.967Z,7.63
2018-10-01T05:58:23.676Z,21.93
2018-10-01T06:00:52.807Z,10.17
2018-10-01T06:03:21.487Z,7.10
2018-10-01T06:05:50.416Z,4.13
2018-10-01T06:08:19.662Z,7.63
2018-10-01T06:10:48.255Z,5.70
2018-10-01T06:13:16.943Z,8.33
2018-10-01T06:15:45.605Z,8.90
2018-10-01T06:18:14.386Z,7.23
2018-10-01T06:20:43.379Z,12.47
2018-10-01T06:23:12.192Z,14.93
2018-10-01T06:25:41.255Z,6.57
2018-10-01T06:28:10.568Z,9.53
2018-10-01T06:30:39.590Z,7.10
2018-10-01T06:33:08.814Z,8.00
2018-10-01T06:35:37.941Z,7.47
2018-10-01T06:38:07.067Z,13.70
2018-10-01T06:40:35.689Z,5.50
2018-10-01T06:43:04.412Z,14.00
2018-10-01T06:45:33.438Z,9.03
2018-10-01T06:48:02.406Z,6.73
2018-10-01T06:50:31.090Z,6.10
2018-10-01T06:53:01.184Z,23.97
2018-10-01T06:55:30.636Z,13.43
2018-10-01T06:57:59.257Z,8.20
2018-10-01T07:00:28.635Z,16.00
2018-10-01T07:02:57.824Z,8.40
2018-10-01T07:05:26.736Z,11.43
2018-10-01T07:07:55.724Z,11.00
2018-10-01T07:10:24.423Z,10.70
2018-10-01T07:12:53.169Z,7.73
2018-10-01T07:15:22.228Z,9.30
2018-10-01T07:17:51.181Z,10.30
2018-10-01T07:20:20.147Z,7.77
2018-10-01T07:22:49.399Z,4.37
2018-10-01T07:25:18.322Z,8.20
2018-10-01T07:27:47.241Z,5.53
2018-10-01T07:30:16.219Z,10.70
2018-10-01T07:32:44.905Z,4.77
2018-10-01T07:35:13.634Z,10.57
2018-10-01T07:37:42.535Z,6.70
2018-10-01T07:40:11.279Z,14.77
2018-10-01T07:42:40.078Z,11.23
2018-10-01T07:45:08.784Z,6.00
2018-10-01T07:47:37.682Z,5.93
2018-10-01T07:50:07.194Z,6.67
2018-10-01T07:52:36.094Z,4.03
2018-10-01T07:55:05.472Z,11.70
2018-10-01T07:57:34.219Z,10.17
2018-10-01T08:00:03.195Z,10.23
2018-10-01T08:02:31.663Z,10.07
2018-10-01T08:05:00.570Z,12.60
2018-10-01T08:07:30.006Z,13.73
2018-10-01T08:09:58.679Z,11.10
2018-10-01T08:12:27.370Z,11.87
2018-10-01T08:14:56.098Z,11.57
2018-10-01T08:17:25.073Z,15.90
2018-10-01T08:19:53.925Z,16.47
2018-10-01T08:22:22.783Z,8.73
2018-10-01T08:24:51.766Z,9.63
2018-10-01T08:27:20.910Z,8.63
2018-10-01T08:29:49.931Z,9.83
2018-10-01T08:32:19.007Z,9.63
2018-10-01T08:34:48.070Z,4.70
2018-10-01T08:37:16.936Z,4.57
2018-10-01T08:39:45.654Z,3.00
2018-10-01T08:42:14.405Z,6.07
2018-10-01T08:44:42.978Z,5.57
2018-10-01T08:47:11.705Z,3.87
2018-10-01T08:49:45.551Z,8.97
2018-10-01T08:52:26.958Z,6.67
2018-10-01T08:54:56.143Z,12.50
2018-10-01T08:57:24.809Z,5.47
2018-10-01T08:59:53.569Z,10.37
2018-10-01T09:02:22.465Z,3.60
2018-10-01T09:04:51.218Z,7.33
2018-10-01T09:07:20.208Z,8.57
2018-10-01T09:09:48.840Z,3.47
2018-10-01T09:12:17.713Z,3.50
2018-10-01T09:14:46.870Z,7.27
2018-10-01T09:17:15.949Z,4.93
2018-10-01T09:19:44.786Z,8.73
2018-10-01T09:22:13.811Z,4.20
2018-10-01T09:24:42.862Z,10.50
2018-10-01T09:27:11.754Z,17.87
2018-10-01T09:29:40.780Z,6.83
2018-10-01T09:32:09.460Z,7.77
2018-10-01T09:34:38.478Z,14.40
2018-10-01T09:37:07.636Z,15.00
2018-10-01T09:39:36.468Z,3.97
2018-10-01T09:42:05.458Z,3.13
2018-10-01T09:44:34.094Z,5.20
2018-10-01T09:47:02.940Z,5.97
2018-10-01T09:49:31.874Z,5.50
2018-10-01T09:52:00.945Z,6.03
2018-10-01T09:54:29.662Z,3.83
2018-10-01T09:56:58.607Z,2.43
2018-10-01T09:59:27.419Z,8.17
2018-10-01T10:01:56.516Z,5.97
2018-10-01T10:04:25.438Z,4.60
2018-10-01T10:06:54.349Z,5.80
2018-10-01T10:09:23.203Z,5.10
2018-10-01T10:11:52.375Z,3.40
2018-10-01T10:14:21.169Z,7.20
2018-10-01T10:16:50.381Z,8.80
2018-10-01T10:19:18.966Z,5.33
2018-10-01T10:21:47.859Z,3.73
2018-10-01T10:24:16.610Z,2.50
2018-10-01T10:26:45.298Z,4.17
2018-10-01T10:29:14.226Z,1.70
2018-10-01T10:31:43.069Z,5.83
2018-10-01T10:34:12.133Z,7.93
2018-10-01T10:36:40.993Z,3.00
2018-10-01T10:39:11.863Z,6.33
2018-10-01T10:41:40.765Z,7.53
2018-10-01T10:44:09.519Z,5.27
2018-10-01T10:46:38.307Z,4.97
2018-10-01T10:49:07.266Z,5.80
2018-10-01T10:51:36.514Z,4.53
2018-10-01T10:54:05.139Z,5.57
2018-10-01T10:56:34.112Z,5.90
2018-10-01T10:59:03.138Z,4.10
2018-10-01T11:01:31.930Z,3.23
2018-10-01T11:04:00.893Z,13.57
2018-10-01T11:06:29.817Z,2.53
2018-10-01T11:08:58.779Z,8.77
2018-10-01T11:11:27.451Z,7.90
2018-10-01T11:13:56.127Z,4.53
2018-10-01T11:16:24.707Z,8.50
2018-10-01T11:18:53.715Z,2.10
2018-10-01T11:21:22.567Z,3.22
2018-10-01T11:23:51.679Z,6.50
2018-10-01T11:26:20.781Z,2.62
2018-10-01T11:28:49.584Z,2.20
2018-10-01T11:31:18.758Z,4.92
2018-10-01T11:33:47.730Z,2.10
2018-10-01T11:36:16.777Z,9.10
2018-10-01T11:38:45.714Z,3.95
2018-10-01T11:41:14.764Z,1.47
2018-10-01T11:43:43.496Z,2.98
2018-10-01T11:46:12.367Z,4.05
2018-10-01T11:48:41.122Z,7.30
2018-10-01T11:51:10.362Z,1.82
2018-10-01T11:53:39.335Z,4.35
2018-10-01T11:56:09.127Z,5.87
2018-10-01T11:58:38.006Z,2.62
2018-10-01T12:01:07.226Z,8.18
2018-10-01T12:03:36.361Z,2.50
2018-10-01T12:06:05.378Z,5.28
2018-10-01T12:08:34.228Z,2.55
2018-10-01T12:11:02.874Z,2.90
2018-10-01T12:13:31.446Z,4.42
2018-10-01T12:16:00.267Z,8.43
2018-10-01T12:18:28.935Z,2.50
2018-10-01T12:20:57.797Z,4.22
2018-10-01T12:23:26.857Z,2.55
2018-10-01T12:25:55.888Z,3.92
2018-10-01T12:28:24.527Z,6.08
2018-10-01T12:30:53.355Z,3.33
2018-10-01T12:33:22.290Z,8.13
2018-10-01T12:35:51.151Z,4.20
2018-10-01T12:38:22.874Z,3.77
2018-10-01T12:40:58.071Z,8.13
2018-10-01T12:43:27.466Z,12.13
2018-10-01T12:45:56.236Z,3.45
2018-10-01T12:48:25.516Z,5.50
2018-10-01T12:50:54.595Z,2.25
2018-10-01T12:53:23.220Z,3.55
2018-10-01T12:55:52.175Z,3.42
2018-10-01T12:58:21.230Z,2.55
2018-10-01T13:00:50.083Z,14.30
2018-10-01T13:03:19.591Z,8.10
2018-10-01T13:05:48.521Z,3.00
2018-10-01T13:08:17.160Z,5.33
2018-10-01T13:10:46.146Z,9.33
2018-10-01T13:13:15.137Z,7.03
2018-10-01T13:15:43.850Z,8.55
2018-10-01T13:18:12.724Z,5.55
2018-10-01T13:20:41.587Z,8.05
2018-10-01T13:23:10.558Z,9.60
2018-10-01T13:25:39.314Z,3.25
2018-10-01T13:28:08.452Z,5.17
2018-10-01T13:30:37.582Z,9.08
2018-10-01T13:33:06.922Z,7.17
2018-10-01T13:35:35.670Z,5.95
2018-10-01T13:38:04.354Z,2.65
2018-10-01T13:40:33.464Z,2.52
2018-10-01T13:43:02.741Z,9.75
2018-10-01T13:45:31.547Z,5.55
2018-10-01T13:48:00.293Z,5.67
2018-10-01T13:50:29.098Z,2.55
2018-10-01T13:52:58.221Z,14.10
2018-10-01T13:55:27.122Z,6.25
2018-10-01T13:57:56.048Z,6.30
2018-10-01T14:00:25.141Z,3.00
2018-10-01T14:02:54.034Z,3.50
2018-10-01T14:05:22.923Z,4.28
2018-10-01T14:07:52.158Z,5.95
2018-10-01T14:10:20.929Z,5.55
2018-10-01T14:12:49.686Z,11.57
2018-10-01T14:15:18.411Z,7.58
2018-10-01T14:17:47.370Z,3.47
2018-10-01T14:20:16.112Z,5.37
2018-10-01T14:22:45.011Z,7.20
2018-10-01T14:25:14.028Z,8.30
2018-10-01T14:27:43.034Z,9.18
2018-10-01T14:30:12.116Z,3.05
2018-10-01T14:32:40.981Z,5.17
2018-10-01T14:35:09.998Z,4.00
2018-10-01T14:37:39.445Z,7.20
2018-10-01T14:40:08.731Z,6.67
2018-10-01T14:42:37.433Z,5.55
2018-10-01T14:45:06.845Z,1.45
2018-10-01T14:47:35.986Z,5.28
2018-10-01T14:50:04.690Z,3.10
2018-10-01T14:52:33.398Z,1.80
2018-10-01T14:55:02.609Z,5.58
2018-10-01T14:57:31.551Z,12.07
2018-10-01T15:00:00.561Z,6.05
2018-10-01T15:02:29.480Z,3.50
2018-10-01T15:04:58.186Z,5.83
2018-10-01T15:07:27.161Z,9.18
2018-10-01T15:09:56.380Z,1.72
2018-10-01T15:12:25.249Z,2.72
2018-10-01T15:14:53.934Z,12.90
2018-10-01T15:17:22.766Z,4.55
2018-10-01T15:19:51.638Z,10.95
2018-10-01T15:22:20.576Z,15.35
2018-10-01T15:24:50.064Z,4.78
2018-10-01T15:27:19.315Z,6.35
2018-10-01T15:29:48.269Z,2.15
2018-10-01T15:32:17.275Z,8.23
2018-10-01T15:34:46.591Z,4.92
2018-10-01T15:37:15.590Z,9.43
2018-10-01T15:39:44.709Z,7.47
2018-10-01T15:42:13.376Z,5.80
2018-10-01T15:44:41.989Z,6.75
2018-10-01T15:47:10.851Z,6.97
2018-10-01T15:49:39.686Z,5.00
2018-10-01T15:52:08.589Z,2.23
2018-10-01T15:54:37.731Z,3.90
2018-10-01T15:57:06.887Z,5.53
2018-10-01T15:59:35.822Z,4.30
2018-10-01T16:02:04.762Z,13.47
2018-10-01T16:04:33.895Z,2.83
2018-10-01T16:07:02.765Z,7.73
2018-10-01T16:09:31.855Z,3.37
2018-10-01T16:12:00.651Z,6.77
2018-10-01T16:14:29.738Z,3.97
2018-10-01T16:16:58.892Z,4.93
2018-10-01T16:19:27.869Z,5.40
2018-10-01T16:21:56.654Z,5.73
2018-10-01T16:24:25.779Z,4.50
2018-10-01T16:26:54.590Z,10.37
2018-10-01T16:29:23.291Z,9.50
2018-10-01T16:31:52.827Z,7.83
2018-10-01T16:34:21.448Z,4.03
2018-10-01T16:36:50.270Z,8.40
2018-10-01T16:39:19.596Z,5.67
2018-10-01T16:41:48.326Z,7.67
2018-10-01T16:44:17.084Z,20.27
2018-10-01T16:46:48.260Z,8.70
2018-10-01T16:49:17.235Z,5.50
2018-10-01T16:51:46.413Z,7.87
2018-10-01T16:54:15.731Z,3.40
2018-10-01T16:56:44.871Z,7.77
2018-10-01T16:59:13.658Z,6.77
2018-10-01T17:01:42.780Z,7.50
2018-10-01T17:04:11.583Z,9.43
2018-10-01T17:06:40.350Z,8.20
2018-10-01T17:09:10.189Z,9.90
2018-10-01T17:11:38.827Z,6.93
2018-10-01T17:14:07.491Z,8.83
2018-10-01T17:16:36.434Z,8.27
2018-10-01T17:19:05.874Z,5.70
2018-10-01T17:21:34.824Z,17.33
2018-10-01T17:24:03.786Z,23.40
2018-10-01T17:26:32.550Z,28.97
2018-10-01T17:29:01.344Z,11.80
2018-10-01T17:31:30.239Z,9.40
2018-10-01T17:33:59.367Z,7.87
2018-10-01T17:36:28.730Z,7.47
2018-10-01T17:38:57.466Z,9.60
2018-10-01T17:41:26.370Z,8.37
2018-10-01T17:43:55.024Z,12.80
2018-10-01T17:46:23.642Z,6.37
2018-10-01T17:48:52.879Z,6.43
2018-10-01T17:51:21.796Z,14.10
2018-10-01T17:53:50.440Z,10.60
2018-10-01T17:56:19.741Z,15.37
2018-10-01T17:58:48.804Z,14.70
2018-10-01T18:01:17.451Z,13.17
2018-10-01T18:03:46.438Z,13.57
2018-10-01T18:06:15.242Z,5.83
2018-10-01T18:08:43.906Z,6.37
2018-10-01T18:11:12.558Z,7.73
2018-10-01T18:13:41.579Z,13.93
2018-10-01T18:16:10.465Z,6.93
2018-10-01T18:18:39.247Z,7.27
2018-10-01T18:21:08.171Z,8.80
2018-10-01T18:23:37.306Z,11.87
2018-10-01T18:26:06.374Z,8.53
2018-10-01T18:28:35.538Z,9.27
2018-10-01T18:31:04.418Z,8.77
2018-10-01T18:33:33.279Z,5.50
2018-10-01T18:36:02.405Z,6.70
2018-10-01T18:38:31.348Z,13.50
2018-10-01T18:40:59.990Z,15.63
2018-10-01T18:43:29.052Z,16.73
2018-10-01T18:45:57.737Z,23.30
2018-10-01T18:48:26.502Z,19.40
2018-10-01T18:50:55.766Z,13.73
2018-10-01T18:53:24.692Z,13.40
2018-10-01T18:55:53.778Z,17.40
2018-10-01T18:58:22.671Z,12.13
2018-10-01T19:00:51.668Z,11.60
2018-10-01T19:03:20.579Z,12.00
2018-10-01T19:05:49.682Z,13.67
2018-10-01T19:08:18.708Z,13.73
2018-10-01T19:10:47.475Z,12.53
2018-10-01T19:13:16.448Z,8.50
2018-10-01T19:15:45.350Z,8.10
2018-10-01T19:18:14.312Z,9.53
2018-10-01T19:20:43.221Z,9.63
2018-10-01T19:23:12.326Z,10.67
2018-10-01T19:25:41.064Z,11.20
2018-10-01T19:28:10.478Z,13.33
2018-10-01T19:30:39.095Z,19.10
2018-10-01T19:33:08.026Z,10.33
2018-10-01T19:35:37.180Z,13.13
2018-10-01T19:38:05.846Z,15.60
2018-10-01T19:40:34.579Z,26.23
2018-10-01T19:43:03.555Z,23.13
2018-10-01T19:45:32.702Z,12.83
2018-10-01T19:48:01.320Z,8.67
2018-10-01T19:50:30.654Z,11.23
2018-10-01T19:53:00.111Z,7.93
2018-10-01T19:55:28.678Z,7.80
2018-10-01T19:57:57.504Z,5.30
2018-10-01T20:00:26.492Z,8.23
2018-10-01T20:02:55.250Z,8.27
2018-10-01T20:05:24.172Z,9.27
2018-10-01T20:07:53.027Z,11.27
2018-10-01T20:10:21.932Z,7.77
2018-10-01T20:12:50.546Z,6.00
2018-10-01T20:15:19.598Z,15.80
2018-10-01T20:17:49.053Z,10.20
2018-10-01T20:20:18.604Z,12.77
2018-10-01T20:22:47.621Z,14.10
2018-10-01T20:25:16.620Z,12.07
2018-10-01T20:27:45.712Z,12.87
2018-10-01T20:30:14.641Z,14.83
2018-10-01T20:32:43.269Z,13.97
2018-10-01T20:35:12.439Z,12.03
2018-10-01T20:37:41.396Z,11.30
2018-10-01T20:40:10.343Z,13.67
2018-10-01T20:42:39.178Z,10.70
2018-10-01T20:45:08.176Z,17.17
2018-10-01T20:47:36.944Z,13.70
2018-10-01T20:50:06.326Z,14.57
2018-10-01T20:52:35.412Z,14.13
2018-10-01T20:55:04.179Z,12.43
2018-10-01T20:57:33.410Z,12.83
2018-10-01T21:00:02.334Z,22.70
2018-10-01T21:02:31.426Z,21.57
2018-10-01T21:05:00.641Z,17.20
2018-10-01T21:07:29.478Z,21.30
2018-10-01T21:09:58.114Z,13.97
2018-10-01T21:12:27.108Z,11.70
2018-10-01T21:14:55.878Z,11.67
2018-10-01T21:17:24.759Z,12.83
2018-10-01T21:19:53.352Z,13.63
2018-10-01T21:22:22.455Z,16.67
2018-10-01T21:24:51.770Z,12.37
2018-10-01T21:27:20.744Z,18.53
2018-10-01T21:29:49.470Z,12.67
2018-10-01T21:32:18.670Z,13.33
2018-10-01T21:34:47.427Z,20.47
2018-10-01T21:37:16.210Z,20.17
2018-10-01T21:40:17.486Z,13.27
2018-10-01T21:42:46.531Z,15.57
2018-10-01T21:45:17.138Z,15.33
2018-10-01T21:47:46.171Z,13.67
2018-10-01T21:50:14.965Z,11.80
2018-10-01T21:52:43.707Z,14.93
2018-10-01T21:55:12.446Z,12.90
2018-10-01T21:57:41.483Z,12.77
2018-10-01T22:00:11.254Z,13.97
2018-10-01T22:02:40.552Z,12.97
2018-10-01T22:05:09.549Z,19.57
2018-10-01T22:07:38.555Z,21.00
2018-10-01T22:10:07.336Z,14.57
2018-10-01T22:12:36.028Z,15.33
2018-10-01T22:15:05.367Z,12.90
2018-10-01T22:17:34.006Z,15.13
2018-10-01T22:20:02.743Z,12.50
2018-10-01T22:22:31.762Z,17.23
2018-10-01T22:25:00.584Z,12.37
2018-10-01T22:27:29.407Z,12.77
2018-10-01T22:29:58.089Z,12.33
2018-10-01T22:32:27.083Z,12.90
2018-10-01T22:34:56.147Z,15.30
2018-10-01T22:37:25.156Z,14.97
2018-10-01T22:39:53.972Z,15.07
2018-10-01T22:42:22.739Z,24.87
2018-10-01T22:44:51.770Z,16.20
2018-10-01T22:47:20.501Z,11.07
2018-10-01T22:49:49.259Z,20.83
2018-10-01T22:52:18.418Z,11.30
2018-10-01T22:54:47.469Z,14.20
2018-10-01T22:57:16.403Z,12.73
2018-10-01T22:59:45.372Z,12.60
2018-10-01T23:02:14.435Z,12.33
2018-10-01T23:04:43.441Z,12.13
2018-10-01T23:07:12.561Z,10.87
2018-10-01T23:09:41.207Z,14.53
2018-10-01T23:12:09.850Z,11.23
2018-10-01T23:14:38.533Z,11.50
2018-10-01T23:17:07.703Z,13.67
2018-10-01T23:19:36.489Z,13.60
2018-10-01T23:22:05.913Z,12.07
2018-10-01T23:24:34.693Z,12.90
2018-10-01T23:27:03.428Z,12.43
2018-10-01T23:29:32.243Z,12.57
2018-10-01T23:32:01.060Z,16.63
2018-10-01T23:34:29.872Z,9.17
2018-10-01T23:36:58.854Z,9.37
2018-10-01T23:39:27.550Z,11.50
2018-10-01T23:41:56.226Z,9.70
2018-10-01T23:44:24.934Z,10.83
2018-10-01T23:46:53.721Z,10.20
2018-10-01T23:49:22.511Z,10.80
2018-10-01T23:51:51.591Z,10.87
2018-10-01T23:54:20.622Z,12.83
2018-10-01T23:56:49.455Z,9.90
2018-10-01T23:59:18.386Z,10.63
